首页
METAR-TAF:

METAR-TAF

机场 :

Mission Field

利文斯顿, 蒙大拿州, 美国

纬度: 45-41-58N, 经度: 110-26-54W, 海拔: 1419米

当前天气观测

该预报发布于38分钟前的19:53 UTC
风速9节,风向东北
温度 27°C
湿度 20%
气压 1019 hPa
能見度: 16.1公里
天空无云

METAR: KLVM 181953Z AUTO 05009KT 10SM CLR 27/02 A3008 RMK AO2 SLP147 T02670022

时间: 14:31 (20:31 UTC)

预报

该预报发布于2小时和11分钟前的18:20 UTC
预报有效从18日的 18点(UTC)到 19日的 18点(UTC)
风速10节,风向东转东北
能見度: 10公里
天空无云
从 18日的 2000点(UTC)
风速12节,风向,有时为17节阵风
能見度: 10公里
天空无云
从 19日的 0300点(UTC)
风速12节,风向
能見度: 10公里
天空无云
从 19日的 0600点(UTC)
风速7节,风向西北
能見度: 10公里
天空无云
从 19日的 1600点(UTC)
风速12节,风向西北,有时为20节阵风
能見度: 10公里
天空无云

TAF: KLVM 181820Z 1818/1918 07010KT P6SM SKC FM182000 01012G17KT P6SM SKC FM190300 09012KT P6SM SKC FM190600 32007KT P6SM SKC FM191600 32012G20KT P6SM SKC

超过4000个机场的气象观测和天气预报(METAR&TAF报告)。

可查询的气象台以黄色和红色小点在地图上表示。

将鼠标移到小点上方,可查看气象台名称。

然后点击查看天气观测和预报。

如需切换地图:点击带黑十字的绿色按钮放大地图;点击带横线的绿色按钮缩小地图;或者点击绿色箭头查看邻近地区的地图。


METAR-TAF: